createdAt,value
2023-02-07T00:00:58.974Z,93.20
2023-02-07T00:04:02.111Z,93.20
2023-02-07T00:07:05.269Z,93.30
2023-02-07T00:10:10.852Z,93.40
2023-02-07T00:13:13.972Z,93.40
2023-02-07T00:16:17.491Z,93.30
2023-02-07T00:19:20.678Z,93.40
2023-02-07T00:22:23.928Z,93.50
2023-02-07T00:25:28.533Z,93.50
2023-02-07T00:28:32.132Z,93.70
2023-02-07T00:31:36.614Z,93.90
2023-02-07T00:34:39.877Z,94.10
2023-02-07T00:37:43.048Z,94.10
2023-02-07T00:40:47.569Z,94.10
2023-02-07T00:43:50.758Z,94.10
2023-02-07T00:46:53.978Z,94.20
2023-02-07T00:49:57.147Z,94.20
2023-02-07T00:53:00.372Z,94.20
2023-02-07T00:56:05.265Z,94.40
2023-02-07T00:59:08.695Z,94.30
2023-02-07T01:02:11.837Z,94.20
2023-02-07T01:05:15.717Z,94.10
2023-02-07T01:08:18.950Z,94.20
2023-02-07T01:11:23.468Z,94.20
2023-02-07T01:14:26.693Z,94.20
2023-02-07T01:17:29.863Z,94.10
2023-02-07T01:20:33.074Z,94.00
2023-02-07T01:23:36.177Z,94.00
2023-02-07T01:26:41.136Z,94.00
2023-02-07T01:29:44.413Z,94.00
2023-02-07T01:32:47.568Z,94.10
2023-02-07T01:35:50.743Z,94.30
2023-02-07T01:38:54.676Z,94.30
2023-02-07T01:41:59.253Z,94.30
2023-02-07T01:45:14.218Z,94.20
2023-02-07T01:48:23.841Z,94.10
2023-02-07T01:51:27.816Z,94.20
2023-02-07T01:54:33.634Z,94.20
2023-02-07T01:57:38.733Z,94.30
2023-02-07T02:00:42.277Z,94.40
2023-02-07T02:03:48.777Z,94.40
2023-02-07T02:06:53.155Z,94.20
2023-02-07T02:09:56.306Z,94.20
2023-02-07T02:13:18.117Z,94.30
2023-02-07T02:16:31.635Z,94.50
2023-02-07T02:20:19.513Z,94.50
2023-02-07T02:23:33.912Z,94.60
2023-02-07T02:27:00.859Z,94.70
2023-02-07T02:30:37.319Z,94.80
2023-02-07T02:33:51.214Z,94.80
2023-02-07T02:37:02.940Z,94.80
2023-02-07T02:40:10.372Z,94.80
2023-02-07T02:43:21.053Z,94.90
2023-02-07T02:46:28.183Z,94.90
2023-02-07T02:49:35.627Z,94.80
2023-02-07T02:52:50.275Z,94.90
2023-02-07T02:56:26.058Z,94.80
2023-02-07T02:59:45.932Z,95.10
2023-02-07T03:02:59.365Z,94.90
2023-02-07T03:06:13.739Z,95.00
2023-02-07T03:09:26.640Z,95.20
2023-02-07T03:12:37.928Z,95.20
2023-02-07T03:15:50.873Z,95.10
2023-02-07T03:19:01.798Z,95.00
2023-02-07T03:22:10.858Z,95.10
2023-02-07T03:25:16.825Z,95.20
2023-02-07T03:28:22.623Z,95.20
2023-02-07T03:31:28.407Z,95.10
2023-02-07T03:34:35.771Z,95.40
2023-02-07T03:37:43.504Z,95.10
2023-02-07T03:40:50.504Z,95.40
2023-02-07T03:43:55.053Z,95.40
2023-02-07T03:46:59.074Z,95.40
2023-02-07T03:50:02.468Z,95.70
2023-02-07T03:53:07.454Z,95.80
2023-02-07T03:56:10.609Z,95.90
2023-02-07T03:59:13.798Z,96.00
2023-02-07T04:02:16.975Z,96.00
2023-02-07T04:05:20.206Z,96.00
2023-02-07T04:08:24.750Z,96.10
2023-02-07T04:11:27.953Z,96.20
2023-02-07T04:14:31.196Z,96.10
2023-02-07T04:17:34.711Z,96.20
2023-02-07T04:20:37.852Z,96.20
2023-02-07T04:23:42.449Z,96.20
2023-02-07T04:26:45.615Z,96.10
2023-02-07T04:29:48.919Z,96.10
2023-02-07T04:32:52.146Z,96.00
2023-02-07T04:35:56.723Z,96.20
2023-02-07T04:39:01.302Z,95.80
2023-02-07T04:42:04.655Z,96.00
2023-02-07T04:45:08.282Z,96.20
2023-02-07T04:48:11.450Z,96.40
2023-02-07T04:51:14.607Z,96.30
2023-02-07T04:54:19.283Z,96.10
2023-02-07T04:57:22.443Z,96.20
2023-02-07T05:00:25.683Z,96.00
2023-02-07T05:03:28.855Z,95.70
2023-02-07T05:06:32.033Z,95.50
2023-02-07T05:09:36.597Z,95.70
2023-02-07T05:12:39.819Z,95.70
2023-02-07T05:15:43.636Z,95.70
2023-02-07T05:18:46.850Z,95.80
2023-02-07T05:21:50.072Z,95.80
2023-02-07T05:24:54.601Z,95.70
2023-02-07T05:27:57.833Z,95.80
2023-02-07T05:31:01.549Z,95.70
2023-02-07T05:34:03.766Z,95.70
2023-02-07T05:37:06.929Z,95.60
2023-02-07T05:40:13.190Z,95.60
2023-02-07T05:43:16.832Z,95.60
2023-02-07T05:46:20.148Z,95.70
2023-02-07T05:49:23.382Z,95.80
2023-02-07T05:52:26.582Z,95.80
2023-02-07T05:55:31.351Z,95.40
2023-02-07T05:58:34.524Z,95.60
2023-02-07T06:01:37.705Z,95.50
2023-02-07T06:04:40.907Z,95.50
2023-02-07T06:07:45.171Z,95.30
2023-02-07T06:10:50.865Z,95.30
2023-02-07T06:13:54.016Z,95.30
2023-02-07T06:16:57.237Z,95.30
2023-02-07T06:20:00.424Z,95.30
2023-02-07T06:23:03.627Z,95.20
2023-02-07T06:26:08.298Z,95.20
2023-02-07T06:29:11.473Z,95.20
2023-02-07T06:32:14.627Z,95.10
2023-02-07T06:35:17.876Z,95.10
2023-02-07T06:38:22.165Z,95.10
2023-02-07T06:41:26.895Z,95.00
2023-02-07T06:44:30.066Z,94.80
2023-02-07T06:47:33.215Z,94.60
2023-02-07T06:50:36.432Z,94.50
2023-02-07T06:53:39.660Z,94.40
2023-02-07T06:56:44.172Z,94.20
2023-02-07T06:59:47.318Z,94.10
2023-02-07T07:02:50.734Z,94.00
2023-02-07T07:05:54.112Z,94.00
2023-02-07T07:08:57.292Z,93.90
2023-02-07T07:12:01.891Z,93.70
2023-02-07T07:15:05.732Z,93.70
2023-02-07T07:18:08.982Z,93.60
2023-02-07T07:21:12.691Z,93.50
2023-02-07T07:24:15.883Z,93.30
2023-02-07T07:27:20.474Z,93.10
2023-02-07T07:30:23.649Z,93.10
2023-02-07T07:33:26.789Z,93.10
2023-02-07T07:36:29.947Z,93.00
2023-02-07T07:39:33.152Z,93.00
2023-02-07T07:42:37.946Z,93.00
2023-02-07T07:45:41.080Z,92.80
2023-02-07T07:48:44.240Z,92.70
2023-02-07T07:51:47.481Z,92.70
2023-02-07T07:54:50.625Z,92.40
2023-02-07T07:57:56.278Z,92.10
2023-02-07T08:00:59.516Z,92.00
2023-02-07T08:04:03.919Z,92.00
2023-02-07T08:07:07.174Z,92.10
2023-02-07T08:10:10.635Z,91.70
2023-02-07T08:13:16.808Z,91.70
2023-02-07T08:16:20.086Z,91.70
2023-02-07T08:19:23.447Z,91.40
2023-02-07T08:22:26.600Z,91.20
2023-02-07T08:25:29.896Z,91.10
2023-02-07T08:28:34.640Z,91.10
2023-02-07T08:31:37.987Z,91.00
2023-02-07T08:34:41.208Z,90.60
2023-02-07T08:37:44.369Z,90.20
2023-02-07T08:40:47.939Z,90.60
2023-02-07T08:43:52.495Z,90.30
2023-02-07T08:46:55.708Z,90.20
2023-02-07T08:49:58.944Z,90.20
2023-02-07T08:53:02.247Z,90.20
2023-02-07T08:56:05.857Z,90.20
2023-02-07T08:59:10.372Z,89.60
2023-02-07T09:02:13.716Z,89.80
2023-02-07T09:05:17.018Z,89.80
2023-02-07T09:08:20.177Z,89.30
2023-02-07T09:11:23.680Z,89.20
2023-02-07T09:14:28.278Z,88.10
2023-02-07T09:17:31.533Z,87.70
2023-02-07T09:20:34.684Z,87.20
2023-02-07T09:23:37.858Z,86.40
2023-02-07T09:26:41.078Z,86.20
2023-02-07T09:29:45.930Z,86.10
2023-02-07T09:32:49.224Z,84.90
2023-02-07T09:35:54.717Z,84.30
2023-02-07T09:38:58.234Z,83.00
2023-02-07T09:42:12.579Z,82.50
2023-02-07T09:45:19.974Z,81.90
2023-02-07T09:48:26.534Z,81.80
2023-02-07T09:51:29.907Z,81.00
2023-02-07T09:54:39.099Z,77.60
2023-02-07T09:57:48.512Z,52.70
2023-02-07T10:00:58.875Z,40.20
2023-02-07T10:04:13.297Z,29.20
2023-02-07T10:07:16.967Z,25.60
2023-02-07T10:10:33.680Z,22.70
2023-02-07T10:14:01.504Z,20.80
2023-02-07T10:17:31.996Z,20.50
2023-02-07T10:20:41.086Z,18.50
2023-02-07T10:24:05.732Z,17.40
2023-02-07T10:27:11.862Z,16.50
2023-02-07T10:30:17.519Z,16.30
2023-02-07T10:33:25.545Z,15.90
2023-02-07T10:36:33.809Z,15.30
2023-02-07T10:39:43.246Z,15.10
2023-02-07T10:42:51.539Z,14.00
2023-02-07T10:46:04.613Z,14.50
2023-02-07T10:49:24.829Z,14.30
2023-02-07T10:52:31.118Z,13.60
2023-02-07T10:55:43.149Z,12.60
2023-02-07T10:58:46.405Z,13.30
2023-02-07T11:01:54.627Z,12.30
2023-02-07T11:05:00.860Z,12.40
2023-02-07T11:08:08.148Z,12.00
2023-02-07T11:11:27.495Z,11.80
2023-02-07T11:14:30.938Z,11.50
2023-02-07T11:17:35.738Z,10.90
2023-02-07T11:20:42.419Z,10.80
2023-02-07T11:23:46.295Z,10.40
2023-02-07T11:26:57.041Z,10.70
2023-02-07T11:30:05.181Z,10.30
2023-02-07T11:33:20.438Z,10.20
2023-02-07T11:36:31.445Z,10.50
2023-02-07T11:39:34.739Z,10.10
2023-02-07T11:42:37.896Z,9.80
2023-02-07T11:45:45.810Z,9.90
2023-02-07T11:48:53.839Z,10.00
2023-02-07T11:52:02.902Z,10.10
2023-02-07T11:55:10.202Z,9.20
2023-02-07T11:58:21.408Z,9.30
2023-02-07T12:01:28.148Z,9.60
2023-02-07T12:04:35.765Z,9.90
2023-02-07T12:07:44.002Z,10.10
2023-02-07T12:10:51.001Z,11.40
2023-02-07T12:14:02.136Z,10.70
2023-02-07T12:17:10.825Z,10.00
2023-02-07T12:20:24.314Z,9.90
2023-02-07T12:23:42.688Z,9.90
2023-02-07T12:26:53.305Z,9.80
2023-02-07T12:30:04.044Z,9.50
2023-02-07T12:33:14.479Z,9.20
2023-02-07T12:36:25.167Z,9.30
2023-02-07T12:39:34.207Z,9.30
2023-02-07T12:42:43.088Z,9.70
2023-02-07T12:46:03.493Z,9.40
2023-02-07T12:49:28.517Z,9.50
2023-02-07T12:52:44.611Z,9.00
2023-02-07T12:55:59.568Z,8.70
2023-02-07T12:59:13.626Z,8.90
2023-02-07T13:02:33.609Z,8.40
2023-02-07T13:05:52.276Z,8.40
2023-02-07T13:09:04.289Z,10.20
2023-02-07T13:12:13.949Z,9.90
2023-02-07T13:15:25.197Z,10.20
2023-02-07T13:18:37.615Z,9.80
2023-02-07T13:21:45.332Z,9.50
2023-02-07T13:24:49.159Z,10.00
2023-02-07T13:27:57.345Z,10.20
2023-02-07T13:31:01.758Z,9.50
2023-02-07T13:34:05.509Z,9.70
2023-02-07T13:37:17.036Z,9.60
2023-02-07T13:40:33.559Z,9.70
2023-02-07T13:43:58.789Z,10.40
2023-02-07T13:47:22.620Z,10.20
2023-02-07T13:50:34.392Z,9.80
2023-02-07T13:53:48.286Z,9.60
2023-02-07T13:57:15.941Z,9.80
2023-02-07T14:00:23.738Z,10.60
2023-02-07T14:03:32.138Z,10.50
2023-02-07T14:06:38.826Z,10.40
2023-02-07T14:09:46.878Z,10.60
2023-02-07T14:12:50.686Z,11.00
2023-02-07T14:16:02.020Z,11.40
2023-02-07T14:19:06.401Z,12.40
2023-02-07T14:22:16.989Z,13.20
2023-02-07T14:25:23.735Z,13.80
2023-02-07T14:28:36.442Z,15.30
2023-02-07T14:31:49.178Z,16.50
2023-02-07T14:35:04.696Z,17.80
2023-02-07T14:38:22.356Z,19.30
2023-02-07T14:41:30.404Z,20.60
2023-02-07T14:44:38.845Z,22.00
2023-02-07T14:47:44.573Z,23.20
2023-02-07T14:50:53.749Z,25.00
2023-02-07T14:54:02.970Z,25.60
2023-02-07T14:57:15.263Z,27.70
2023-02-07T15:00:28.968Z,28.40
2023-02-07T15:03:35.017Z,29.30
2023-02-07T15:06:41.555Z,29.70
2023-02-07T15:09:46.098Z,30.80
2023-02-07T15:12:50.062Z,31.10
2023-02-07T15:15:55.719Z,32.40
2023-02-07T15:19:03.301Z,33.10
2023-02-07T15:22:20.599Z,33.50
2023-02-07T15:25:30.885Z,34.40
2023-02-07T15:28:34.411Z,34.90
2023-02-07T15:31:40.428Z,35.50
2023-02-07T15:34:46.435Z,35.90
2023-02-07T15:37:50.498Z,36.10
2023-02-07T15:40:55.329Z,36.50
2023-02-07T15:44:00.003Z,36.80
2023-02-07T15:47:06.228Z,37.20
2023-02-07T15:50:23.151Z,38.20
2023-02-07T15:53:29.409Z,38.90
2023-02-07T15:56:32.622Z,39.10
2023-02-07T15:59:37.663Z,39.50
2023-02-07T16:02:43.902Z,40.00
2023-02-07T16:05:48.903Z,40.20
2023-02-07T16:08:53.894Z,40.40
2023-02-07T16:11:57.013Z,40.80
2023-02-07T16:15:01.901Z,41.10
2023-02-07T16:18:06.478Z,41.90
2023-02-07T16:21:15.288Z,41.90
2023-02-07T16:24:20.993Z,42.90
2023-02-07T16:27:30.250Z,42.40
2023-02-07T16:30:37.331Z,42.80
2023-02-07T16:33:41.831Z,42.90
2023-02-07T16:36:49.624Z,43.00
2023-02-07T16:39:52.776Z,43.20
2023-02-07T16:42:57.102Z,43.40
2023-02-07T16:46:02.080Z,43.70
2023-02-07T16:49:11.569Z,44.00
2023-02-07T16:52:16.303Z,44.00
2023-02-07T16:55:21.927Z,44.10
2023-02-07T16:58:28.208Z,44.40
2023-02-07T17:01:33.383Z,44.70
2023-02-07T17:04:36.580Z,45.00
2023-02-07T17:07:41.393Z,45.20
2023-02-07T17:10:49.353Z,45.50
2023-02-07T17:13:53.645Z,46.00
2023-02-07T17:16:59.668Z,46.00
2023-02-07T17:20:03.240Z,46.20
2023-02-07T17:23:09.389Z,46.50
2023-02-07T17:26:21.797Z,46.80
2023-02-07T17:29:26.852Z,47.10
2023-02-07T17:32:30.134Z,47.40
2023-02-07T17:35:37.238Z,47.90
2023-02-07T17:38:44.856Z,48.20
2023-02-07T17:41:49.583Z,48.80
2023-02-07T17:44:56.083Z,49.20
2023-02-07T17:48:02.121Z,49.50
2023-02-07T17:51:09.076Z,49.70
2023-02-07T17:54:15.781Z,49.90
2023-02-07T17:57:22.577Z,50.40
2023-02-07T18:00:30.099Z,50.60
2023-02-07T18:03:36.325Z,50.80
2023-02-07T18:06:41.105Z,51.10
2023-02-07T18:09:48.534Z,51.30
2023-02-07T18:12:53.537Z,51.70
2023-02-07T18:15:58.053Z,52.00
2023-02-07T18:19:05.599Z,52.20
2023-02-07T18:22:10.713Z,52.30
2023-02-07T18:25:16.784Z,52.40
2023-02-07T18:28:21.279Z,52.70
2023-02-07T18:31:27.265Z,52.90
2023-02-07T18:34:31.510Z,53.00
2023-02-07T18:37:36.737Z,53.20
2023-02-07T18:40:45.459Z,53.30
2023-02-07T18:43:50.332Z,53.40
2023-02-07T18:46:56.342Z,53.60
2023-02-07T18:50:01.548Z,53.80
2023-02-07T18:53:07.166Z,54.20
2023-02-07T18:56:22.498Z,54.20
2023-02-07T18:59:27.876Z,54.20
2023-02-07T19:02:34.539Z,54.40
2023-02-07T19:05:42.087Z,54.40
2023-02-07T19:08:47.272Z,54.70
2023-02-07T19:11:54.797Z,55.10
2023-02-07T19:14:59.291Z,55.50
2023-02-07T19:18:05.900Z,56.00
2023-02-07T19:21:12.350Z,56.30
2023-02-07T19:24:18.865Z,56.40
2023-02-07T19:27:25.093Z,56.50
2023-02-07T19:30:31.125Z,56.70
2023-02-07T19:33:36.721Z,56.90
2023-02-07T19:36:44.159Z,56.90
2023-02-07T19:39:50.838Z,56.90
2023-02-07T19:42:59.804Z,56.90
2023-02-07T19:46:05.260Z,56.80
2023-02-07T19:49:11.715Z,57.50
2023-02-07T19:52:17.393Z,58.30
2023-02-07T19:55:22.050Z,58.10
2023-02-07T19:58:27.143Z,58.20
2023-02-07T20:01:33.152Z,58.40
2023-02-07T20:04:38.188Z,58.60
2023-02-07T20:07:42.657Z,59.20
2023-02-07T20:10:49.286Z,59.70
2023-02-07T20:13:58.921Z,59.90
2023-02-07T20:17:03.771Z,60.00
2023-02-07T20:20:12.466Z,60.40
2023-02-07T20:23:17.698Z,61.00
2023-02-07T20:26:24.143Z,61.60
2023-02-07T20:29:30.157Z,61.90
2023-02-07T20:32:35.016Z,62.00
2023-02-07T20:35:39.712Z,62.20
2023-02-07T20:38:45.782Z,62.90
2023-02-07T20:41:57.179Z,63.20
2023-02-07T20:45:02.796Z,63.40
2023-02-07T20:48:08.106Z,63.90
2023-02-07T20:51:13.130Z,64.10
2023-02-07T20:54:18.859Z,64.30
2023-02-07T20:57:23.554Z,64.60
2023-02-07T21:00:29.974Z,65.00
2023-02-07T21:03:35.832Z,65.20
2023-02-07T21:06:43.117Z,65.30
2023-02-07T21:09:47.672Z,66.20
2023-02-07T21:12:54.115Z,65.60
2023-02-07T21:16:04.737Z,65.80
2023-02-07T21:19:09.600Z,65.80
2023-02-07T21:22:14.309Z,65.80
2023-02-07T21:25:18.556Z,65.80
2023-02-07T21:28:22.416Z,66.50
2023-02-07T21:31:28.339Z,67.00
2023-02-07T21:34:32.464Z,67.20
2023-02-07T21:37:35.824Z,67.10
2023-02-07T21:40:39.325Z,67.70
2023-02-07T21:43:43.879Z,68.00
2023-02-07T21:46:48.522Z,68.20
2023-02-07T21:49:51.888Z,68.60
2023-02-07T21:52:55.223Z,68.70
2023-02-07T21:56:01.173Z,68.80
2023-02-07T21:59:06.648Z,68.60
2023-02-07T22:02:13.064Z,68.70
2023-02-07T22:05:16.315Z,68.80
2023-02-07T22:08:19.621Z,69.30
2023-02-07T22:11:24.293Z,69.50
2023-02-07T22:14:29.435Z,69.70
2023-02-07T22:17:33.939Z,70.30
2023-02-07T22:20:37.163Z,71.40
2023-02-07T22:23:40.960Z,71.40
2023-02-07T22:26:44.116Z,71.40
2023-02-07T22:29:47.448Z,72.00
2023-02-07T22:32:52.014Z,72.30
2023-02-07T22:35:55.198Z,72.80
2023-02-07T22:38:59.815Z,72.90
2023-02-07T22:42:02.997Z,73.40
2023-02-07T22:45:06.994Z,73.60
2023-02-07T22:48:11.564Z,74.30
2023-02-07T22:51:18.692Z,74.30
2023-02-07T22:54:21.831Z,74.70
2023-02-07T22:57:24.992Z,75.00
2023-02-07T23:00:28.184Z,75.10
2023-02-07T23:03:33.296Z,75.10
2023-02-07T23:06:36.500Z,75.10
2023-02-07T23:09:40.237Z,75.10
2023-02-07T23:12:43.882Z,75.20
2023-02-07T23:15:48.475Z,76.10
2023-02-07T23:18:56.254Z,76.70
2023-02-07T23:21:59.919Z,76.60
2023-02-07T23:25:03.114Z,76.40
2023-02-07T23:28:06.571Z,76.70
2023-02-07T23:31:11.964Z,76.40
2023-02-07T23:34:16.574Z,76.70
2023-02-07T23:37:22.355Z,76.90
2023-02-07T23:40:25.595Z,77.30
2023-02-07T23:43:29.237Z,77.40
2023-02-07T23:46:33.590Z,77.90
2023-02-07T23:49:38.243Z,78.40
2023-02-07T23:52:41.414Z,78.70
2023-02-07T23:55:44.768Z,79.00
2023-02-07T23:58:49.110Z,79.10
